sensor_id;sensor_type;location;lat;lon;timestamp;temperature;humidity
14283;DHT22;7225;59.282;18.344;2022-12-18T00:00:03;-0.20;99.90
14283;DHT22;7225;59.282;18.344;2022-12-18T00:02:31;-0.10;99.90
14283;DHT22;7225;59.282;18.344;2022-12-18T00:05:00;-0.10;99.90
14283;DHT22;7225;59.282;18.344;2022-12-18T00:07:30;-0.10;99.90
14283;DHT22;7225;59.282;18.344;2022-12-18T00:09:58;-0.10;99.90
14283;DHT22;7225;59.282;18.344;2022-12-18T00:12:27;-0.10;99.90
14283;DHT22;7225;59.282;18.344;2022-12-18T00:14:56;-0.10;99.90
14283;DHT22;7225;59.282;18.344;2022-12-18T00:17:24;-0.10;99.90
14283;DHT22;7225;59.282;18.344;2022-12-18T00:19:53;-0.10;99.90
14283;DHT22;7225;59.282;18.344;2022-12-18T00:22:21;-0.10;99.90
14283;DHT22;7225;59.282;18.344;2022-12-18T00:24:49;-0.10;99.90
14283;DHT22;7225;59.282;18.344;2022-12-18T00:27:18;-0.10;99.90
14283;DHT22;7225;59.282;18.344;2022-12-18T00:29:48;0.00;99.90
14283;DHT22;7225;59.282;18.344;2022-12-18T00:32:17;0.00;99.90
14283;DHT22;7225;59.282;18.344;2022-12-18T00:34:46;0.00;99.90
14283;DHT22;7225;59.282;18.344;2022-12-18T00:37:13;0.00;99.90
14283;DHT22;7225;59.282;18.344;2022-12-18T00:39:48;0.00;99.90
14283;DHT22;7225;59.282;18.344;2022-12-18T00:42:15;0.10;99.90
14283;DHT22;7225;59.282;18.344;2022-12-18T00:45:02;0.10;99.90
14283;DHT22;7225;59.282;18.344;2022-12-18T00:47:40;0.10;99.90
14283;DHT22;7225;59.282;18.344;2022-12-18T00:50:08;0.00;99.90
14283;DHT22;7225;59.282;18.344;2022-12-18T00:52:39;0.00;99.90
14283;DHT22;7225;59.282;18.344;2022-12-18T00:55:10;0.10;99.90
14283;DHT22;7225;59.282;18.344;2022-12-18T00:57:40;0.00;99.90
14283;DHT22;7225;59.282;18.344;2022-12-18T01:00:13;0.00;99.90
14283;DHT22;7225;59.282;18.344;2022-12-18T01:02:41;0.10;99.90
14283;DHT22;7225;59.282;18.344;2022-12-18T01:05:13;0.10;99.90
14283;DHT22;7225;59.282;18.344;2022-12-18T01:07:41;0.10;99.90
14283;DHT22;7225;59.282;18.344;2022-12-18T01:10:12;0.10;99.90
14283;DHT22;7225;59.282;18.344;2022-12-18T01:12:40;0.20;99.90
14283;DHT22;7225;59.282;18.344;2022-12-18T01:15:10;0.10;99.90
14283;DHT22;7225;59.282;18.344;2022-12-18T01:17:39;0.10;99.90
14283;DHT22;7225;59.282;18.344;2022-12-18T01:20:10;0.20;99.90
14283;DHT22;7225;59.282;18.344;2022-12-18T01:22:39;0.10;99.90
14283;DHT22;7225;59.282;18.344;2022-12-18T01:25:08;0.10;99.90
14283;DHT22;7225;59.282;18.344;2022-12-18T01:27:36;0.10;99.90
14283;DHT22;7225;59.282;18.344;2022-12-18T01:30:04;0.10;99.90
14283;DHT22;7225;59.282;18.344;2022-12-18T01:32:32;0.10;99.90
14283;DHT22;7225;59.282;18.344;2022-12-18T01:35:00;0.10;99.90
14283;DHT22;7225;59.282;18.344;2022-12-18T01:37:28;0.10;99.90
14283;DHT22;7225;59.282;18.344;2022-12-18T01:39:56;0.10;99.90
14283;DHT22;7225;59.282;18.344;2022-12-18T01:42:24;0.20;99.90
14283;DHT22;7225;59.282;18.344;2022-12-18T01:45:00;0.20;99.90
14283;DHT22;7225;59.282;18.344;2022-12-18T01:55:29;0.20;99.90
14283;DHT22;7225;59.282;18.344;2022-12-18T01:57:59;0.20;99.90
14283;DHT22;7225;59.282;18.344;2022-12-18T02:00:29;0.20;99.90
14283;DHT22;7225;59.282;18.344;2022-12-18T02:02:57;0.20;99.90
14283;DHT22;7225;59.282;18.344;2022-12-18T02:16:59;0.30;99.90
14283;DHT22;7225;59.282;18.344;2022-12-18T02:27:54;0.30;99.90
14283;DHT22;7225;59.282;18.344;2022-12-18T02:30:27;0.30;99.90
14283;DHT22;7225;59.282;18.344;2022-12-18T02:32:57;0.30;99.90
14283;DHT22;7225;59.282;18.344;2022-12-18T02:35:29;0.20;99.90
14283;DHT22;7225;59.282;18.344;2022-12-18T02:37:58;0.30;99.90
14283;DHT22;7225;59.282;18.344;2022-12-18T02:40:28;0.30;99.90
14283;DHT22;7225;59.282;18.344;2022-12-18T02:43:12;0.30;99.90
14283;DHT22;7225;59.282;18.344;2022-12-18T02:48:18;0.30;99.90
14283;DHT22;7225;59.282;18.344;2022-12-18T02:53:53;0.30;99.90
14283;DHT22;7225;59.282;18.344;2022-12-18T02:56:31;0.30;99.90
14283;DHT22;7225;59.282;18.344;2022-12-18T02:59:17;0.30;99.90
14283;DHT22;7225;59.282;18.344;2022-12-18T03:02:07;0.30;99.90
14283;DHT22;7225;59.282;18.344;2022-12-18T03:04:47;0.30;99.90
14283;DHT22;7225;59.282;18.344;2022-12-18T03:07:25;0.30;99.90
14283;DHT22;7225;59.282;18.344;2022-12-18T03:09:54;0.30;99.90
14283;DHT22;7225;59.282;18.344;2022-12-18T03:12:32;0.30;99.90
14283;DHT22;7225;59.282;18.344;2022-12-18T03:18:06;0.40;99.90
14283;DHT22;7225;59.282;18.344;2022-12-18T03:20:39;0.30;99.90
14283;DHT22;7225;59.282;18.344;2022-12-18T03:23:16;0.30;99.90
14283;DHT22;7225;59.282;18.344;2022-12-18T03:25:47;0.40;99.90
14283;DHT22;7225;59.282;18.344;2022-12-18T03:28:22;0.40;99.90
14283;DHT22;7225;59.282;18.344;2022-12-18T03:30:54;0.30;99.90
14283;DHT22;7225;59.282;18.344;2022-12-18T03:33:33;0.30;99.90
14283;DHT22;7225;59.282;18.344;2022-12-18T03:36:03;0.30;99.90
14283;DHT22;7225;59.282;18.344;2022-12-18T03:38:31;0.30;99.90
14283;DHT22;7225;59.282;18.344;2022-12-18T03:41:01;0.30;99.90
14283;DHT22;7225;59.282;18.344;2022-12-18T03:46:22;0.30;99.90
14283;DHT22;7225;59.282;18.344;2022-12-18T03:49:00;0.30;99.90
14283;DHT22;7225;59.282;18.344;2022-12-18T03:51:42;0.30;99.90
14283;DHT22;7225;59.282;18.344;2022-12-18T03:54:11;0.30;99.90
14283;DHT22;7225;59.282;18.344;2022-12-18T03:56:47;0.20;99.90
14283;DHT22;7225;59.282;18.344;2022-12-18T03:59:18;0.20;99.90
14283;DHT22;7225;59.282;18.344;2022-12-18T04:01:49;0.20;99.90
14283;DHT22;7225;59.282;18.344;2022-12-18T04:04:18;0.20;99.90
14283;DHT22;7225;59.282;18.344;2022-12-18T04:06:48;0.20;99.90
14283;DHT22;7225;59.282;18.344;2022-12-18T04:09:17;0.20;99.90
14283;DHT22;7225;59.282;18.344;2022-12-18T04:11:47;0.20;99.90
14283;DHT22;7225;59.282;18.344;2022-12-18T04:14:15;0.30;99.90
14283;DHT22;7225;59.282;18.344;2022-12-18T04:16:46;0.20;99.90
14283;DHT22;7225;59.282;18.344;2022-12-18T04:19:15;0.20;99.90
14283;DHT22;7225;59.282;18.344;2022-12-18T04:21:43;0.20;99.90
14283;DHT22;7225;59.282;18.344;2022-12-18T04:24:11;0.20;99.90
14283;DHT22;7225;59.282;18.344;2022-12-18T04:26:38;0.10;99.90
14283;DHT22;7225;59.282;18.344;2022-12-18T04:29:07;0.20;99.90
14283;DHT22;7225;59.282;18.344;2022-12-18T04:31:37;0.20;99.90
14283;DHT22;7225;59.282;18.344;2022-12-18T04:34:05;0.20;99.90
14283;DHT22;7225;59.282;18.344;2022-12-18T04:36:33;0.20;99.90
14283;DHT22;7225;59.282;18.344;2022-12-18T04:39:01;0.20;99.90
14283;DHT22;7225;59.282;18.344;2022-12-18T04:41:28;0.10;99.90
14283;DHT22;7225;59.282;18.344;2022-12-18T04:43:57;0.10;99.90
14283;DHT22;7225;59.282;18.344;2022-12-18T04:46:25;0.20;99.90
14283;DHT22;7225;59.282;18.344;2022-12-18T04:48:55;0.10;99.90
14283;DHT22;7225;59.282;18.344;2022-12-18T04:51:23;0.20;99.90
14283;DHT22;7225;59.282;18.344;2022-12-18T04:53:54;0.10;99.90
14283;DHT22;7225;59.282;18.344;2022-12-18T04:56:23;0.20;99.90
14283;DHT22;7225;59.282;18.344;2022-12-18T04:58:51;0.20;99.90
14283;DHT22;7225;59.282;18.344;2022-12-18T05:01:19;0.20;99.90
14283;DHT22;7225;59.282;18.344;2022-12-18T05:03:47;0.20;99.90
14283;DHT22;7225;59.282;18.344;2022-12-18T05:06:14;0.20;99.90
14283;DHT22;7225;59.282;18.344;2022-12-18T05:08:44;0.20;99.90
14283;DHT22;7225;59.282;18.344;2022-12-18T05:11:14;0.20;99.90
14283;DHT22;7225;59.282;18.344;2022-12-18T05:13:43;0.20;99.90
14283;DHT22;7225;59.282;18.344;2022-12-18T05:16:11;0.20;99.90
14283;DHT22;7225;59.282;18.344;2022-12-18T05:18:40;0.20;99.90
14283;DHT22;7225;59.282;18.344;2022-12-18T05:21:07;0.20;99.90
14283;DHT22;7225;59.282;18.344;2022-12-18T05:23:35;0.20;99.90
14283;DHT22;7225;59.282;18.344;2022-12-18T05:26:06;0.10;99.90
14283;DHT22;7225;59.282;18.344;2022-12-18T05:28:36;0.20;99.90
14283;DHT22;7225;59.282;18.344;2022-12-18T05:31:05;0.10;99.90
14283;DHT22;7225;59.282;18.344;2022-12-18T05:33:34;0.10;99.90
14283;DHT22;7225;59.282;18.344;2022-12-18T05:36:06;0.10;99.90
14283;DHT22;7225;59.282;18.344;2022-12-18T05:38:36;0.10;99.90
14283;DHT22;7225;59.282;18.344;2022-12-18T05:41:05;0.20;99.90
14283;DHT22;7225;59.282;18.344;2022-12-18T05:43:35;0.10;99.90
14283;DHT22;7225;59.282;18.344;2022-12-18T05:46:10;0.10;99.90
14283;DHT22;7225;59.282;18.344;2022-12-18T05:48:41;0.10;99.90
14283;DHT22;7225;59.282;18.344;2022-12-18T05:51:13;0.10;99.90
14283;DHT22;7225;59.282;18.344;2022-12-18T05:53:43;0.10;99.90
14283;DHT22;7225;59.282;18.344;2022-12-18T05:56:17;0.10;99.90
14283;DHT22;7225;59.282;18.344;2022-12-18T05:58:46;0.20;99.90
14283;DHT22;7225;59.282;18.344;2022-12-18T06:01:21;0.20;99.90
14283;DHT22;7225;59.282;18.344;2022-12-18T06:03:51;0.20;99.90
14283;DHT22;7225;59.282;18.344;2022-12-18T06:06:24;0.20;99.90
14283;DHT22;7225;59.282;18.344;2022-12-18T06:08:52;0.20;99.90
14283;DHT22;7225;59.282;18.344;2022-12-18T06:11:22;0.20;99.90
14283;DHT22;7225;59.282;18.344;2022-12-18T06:13:52;0.20;99.90
14283;DHT22;7225;59.282;18.344;2022-12-18T06:16:28;0.20;99.90
14283;DHT22;7225;59.282;18.344;2022-12-18T06:18:57;0.20;99.90
14283;DHT22;7225;59.282;18.344;2022-12-18T06:21:27;0.20;99.90
14283;DHT22;7225;59.282;18.344;2022-12-18T06:23:56;0.20;99.90
14283;DHT22;7225;59.282;18.344;2022-12-18T06:26:24;0.20;99.90
14283;DHT22;7225;59.282;18.344;2022-12-18T06:28:55;0.30;99.90
14283;DHT22;7225;59.282;18.344;2022-12-18T06:31:25;0.30;99.90
14283;DHT22;7225;59.282;18.344;2022-12-18T06:33:52;0.30;99.90
14283;DHT22;7225;59.282;18.344;2022-12-18T06:36:20;0.30;99.90
14283;DHT22;7225;59.282;18.344;2022-12-18T06:38:48;0.30;99.90
14283;DHT22;7225;59.282;18.344;2022-12-18T06:41:19;0.30;99.90
14283;DHT22;7225;59.282;18.344;2022-12-18T06:43:47;0.30;99.90
14283;DHT22;7225;59.282;18.344;2022-12-18T06:46:15;0.40;99.90
14283;DHT22;7225;59.282;18.344;2022-12-18T06:48:49;0.40;99.90
14283;DHT22;7225;59.282;18.344;2022-12-18T06:51:18;0.40;99.90
14283;DHT22;7225;59.282;18.344;2022-12-18T06:53:46;0.40;99.90
14283;DHT22;7225;59.282;18.344;2022-12-18T06:56:14;0.40;99.90
14283;DHT22;7225;59.282;18.344;2022-12-18T06:58:44;0.40;99.90
14283;DHT22;7225;59.282;18.344;2022-12-18T07:01:13;0.40;99.90
14283;DHT22;7225;59.282;18.344;2022-12-18T07:03:40;0.40;99.90
14283;DHT22;7225;59.282;18.344;2022-12-18T07:06:18;0.50;99.90
14283;DHT22;7225;59.282;18.344;2022-12-18T07:08:48;0.50;99.90
14283;DHT22;7225;59.282;18.344;2022-12-18T07:11:16;0.50;99.90
14283;DHT22;7225;59.282;18.344;2022-12-18T07:13:45;0.50;99.90
14283;DHT22;7225;59.282;18.344;2022-12-18T07:16:17;0.50;99.90
14283;DHT22;7225;59.282;18.344;2022-12-18T07:18:50;0.60;99.90
14283;DHT22;7225;59.282;18.344;2022-12-18T07:21:20;0.60;99.90
14283;DHT22;7225;59.282;18.344;2022-12-18T07:23:48;0.70;99.90
14283;DHT22;7225;59.282;18.344;2022-12-18T07:26:20;0.70;99.90
14283;DHT22;7225;59.282;18.344;2022-12-18T07:28:49;0.70;99.90
14283;DHT22;7225;59.282;18.344;2022-12-18T07:31:20;0.70;99.90
14283;DHT22;7225;59.282;18.344;2022-12-18T07:33:49;0.80;99.90
14283;DHT22;7225;59.282;18.344;2022-12-18T07:36:22;0.80;99.90
14283;DHT22;7225;59.282;18.344;2022-12-18T07:38:51;0.80;99.90
14283;DHT22;7225;59.282;18.344;2022-12-18T07:41:21;0.80;99.90
14283;DHT22;7225;59.282;18.344;2022-12-18T07:43:49;0.90;99.90
14283;DHT22;7225;59.282;18.344;2022-12-18T07:46:17;0.90;99.90
14283;DHT22;7225;59.282;18.344;2022-12-18T07:48:45;0.90;99.90
14283;DHT22;7225;59.282;18.344;2022-12-18T07:51:17;0.90;99.90
14283;DHT22;7225;59.282;18.344;2022-12-18T07:53:45;1.00;99.90
14283;DHT22;7225;59.282;18.344;2022-12-18T07:56:20;1.00;99.90
14283;DHT22;7225;59.282;18.344;2022-12-18T07:58:54;1.00;99.90
14283;DHT22;7225;59.282;18.344;2022-12-18T08:01:22;1.10;99.90
14283;DHT22;7225;59.282;18.344;2022-12-18T08:03:53;1.10;99.90
14283;DHT22;7225;59.282;18.344;2022-12-18T08:06:21;1.20;99.90
14283;DHT22;7225;59.282;18.344;2022-12-18T08:08:55;1.20;99.90
14283;DHT22;7225;59.282;18.344;2022-12-18T08:11:25;1.20;99.90
14283;DHT22;7225;59.282;18.344;2022-12-18T08:13:53;1.30;99.90
14283;DHT22;7225;59.282;18.344;2022-12-18T08:16:22;1.30;99.90
14283;DHT22;7225;59.282;18.344;2022-12-18T08:18:52;1.40;99.90
14283;DHT22;7225;59.282;18.344;2022-12-18T08:21:25;1.40;99.90
14283;DHT22;7225;59.282;18.344;2022-12-18T08:23:55;1.40;99.90
14283;DHT22;7225;59.282;18.344;2022-12-18T08:26:26;1.40;99.90
14283;DHT22;7225;59.282;18.344;2022-12-18T08:28:56;1.50;99.90
14283;DHT22;7225;59.282;18.344;2022-12-18T08:31:29;1.50;99.90
14283;DHT22;7225;59.282;18.344;2022-12-18T08:33:58;1.50;99.90
14283;DHT22;7225;59.282;18.344;2022-12-18T08:36:25;1.60;99.90
14283;DHT22;7225;59.282;18.344;2022-12-18T08:38:54;1.60;99.90
14283;DHT22;7225;59.282;18.344;2022-12-18T08:41:23;1.60;99.90
14283;DHT22;7225;59.282;18.344;2022-12-18T08:43:50;1.70;99.90
14283;DHT22;7225;59.282;18.344;2022-12-18T08:46:40;1.70;99.90
14283;DHT22;7225;59.282;18.344;2022-12-18T08:49:11;1.70;99.90
14283;DHT22;7225;59.282;18.344;2022-12-18T08:51:39;1.80;99.90
14283;DHT22;7225;59.282;18.344;2022-12-18T08:54:11;1.80;99.90
14283;DHT22;7225;59.282;18.344;2022-12-18T08:56:39;1.80;99.90
14283;DHT22;7225;59.282;18.344;2022-12-18T08:59:08;1.80;99.90
14283;DHT22;7225;59.282;18.344;2022-12-18T09:01:47;1.90;99.90
14283;DHT22;7225;59.282;18.344;2022-12-18T09:04:16;1.90;99.90
14283;DHT22;7225;59.282;18.344;2022-12-18T09:06:44;1.90;99.90
14283;DHT22;7225;59.282;18.344;2022-12-18T09:09:12;2.00;99.90
14283;DHT22;7225;59.282;18.344;2022-12-18T09:11:40;2.00;99.90
14283;DHT22;7225;59.282;18.344;2022-12-18T09:14:10;2.00;99.90
14283;DHT22;7225;59.282;18.344;2022-12-18T09:16:38;2.00;99.90
14283;DHT22;7225;59.282;18.344;2022-12-18T09:19:06;2.00;99.90
14283;DHT22;7225;59.282;18.344;2022-12-18T09:21:35;2.10;99.90
14283;DHT22;7225;59.282;18.344;2022-12-18T09:24:15;2.10;99.90
14283;DHT22;7225;59.282;18.344;2022-12-18T09:26:44;2.10;99.90
14283;DHT22;7225;59.282;18.344;2022-12-18T09:29:15;2.10;99.90
14283;DHT22;7225;59.282;18.344;2022-12-18T09:31:45;2.20;99.90
14283;DHT22;7225;59.282;18.344;2022-12-18T09:34:16;2.20;99.90
14283;DHT22;7225;59.282;18.344;2022-12-18T09:36:44;2.20;99.90
14283;DHT22;7225;59.282;18.344;2022-12-18T09:39:14;2.20;99.90
14283;DHT22;7225;59.282;18.344;2022-12-18T09:41:51;2.30;99.90
14283;DHT22;7225;59.282;18.344;2022-12-18T09:44:31;2.30;99.90
14283;DHT22;7225;59.282;18.344;2022-12-18T09:47:43;2.30;99.90
14283;DHT22;7225;59.282;18.344;2022-12-18T09:50:07;2.30;99.90
14283;DHT22;7225;59.282;18.344;2022-12-18T09:52:46;2.40;99.90
14283;DHT22;7225;59.282;18.344;2022-12-18T09:55:36;2.40;99.90
14283;DHT22;7225;59.282;18.344;2022-12-18T09:58:12;2.50;99.90
14283;DHT22;7225;59.282;18.344;2022-12-18T10:00:42;2.50;99.90
14283;DHT22;7225;59.282;18.344;2022-12-18T10:03:14;2.50;99.90
14283;DHT22;7225;59.282;18.344;2022-12-18T10:11:34;2.60;99.90
14283;DHT22;7225;59.282;18.344;2022-12-18T10:25:30;2.80;99.90
14283;DHT22;7225;59.282;18.344;2022-12-18T10:28:16;2.80;99.90
14283;DHT22;7225;59.282;18.344;2022-12-18T10:30:45;2.80;99.90
14283;DHT22;7225;59.282;18.344;2022-12-18T10:33:20;2.80;99.90
14283;DHT22;7225;59.282;18.344;2022-12-18T10:35:50;2.90;99.90
14283;DHT22;7225;59.282;18.344;2022-12-18T10:38:26;2.90;99.90
14283;DHT22;7225;59.282;18.344;2022-12-18T10:40:56;2.90;99.90
14283;DHT22;7225;59.282;18.344;2022-12-18T10:43:28;2.90;99.90
14283;DHT22;7225;59.282;18.344;2022-12-18T10:48:27;2.90;99.90
14283;DHT22;7225;59.282;18.344;2022-12-18T10:50:57;2.90;99.90
14283;DHT22;7225;59.282;18.344;2022-12-18T10:53:42;2.90;99.90
14283;DHT22;7225;59.282;18.344;2022-12-18T10:56:12;2.90;99.90
14283;DHT22;7225;59.282;18.344;2022-12-18T10:59:05;2.90;99.90
14283;DHT22;7225;59.282;18.344;2022-12-18T11:04:28;2.90;99.90
14283;DHT22;7225;59.282;18.344;2022-12-18T11:07:01;3.00;99.90
14283;DHT22;7225;59.282;18.344;2022-12-18T11:09:36;3.00;99.90
14283;DHT22;7225;59.282;18.344;2022-12-18T11:14:50;3.00;99.90
14283;DHT22;7225;59.282;18.344;2022-12-18T11:17:31;3.00;99.90
14283;DHT22;7225;59.282;18.344;2022-12-18T11:23:00;3.00;99.90
14283;DHT22;7225;59.282;18.344;2022-12-18T11:25:30;3.00;99.90
14283;DHT22;7225;59.282;18.344;2022-12-18T11:28:06;3.00;99.90
14283;DHT22;7225;59.282;18.344;2022-12-18T11:33:42;3.00;99.90
14283;DHT22;7225;59.282;18.344;2022-12-18T11:36:38;3.00;99.90
14283;DHT22;7225;59.282;18.344;2022-12-18T11:41:56;3.00;99.90
14283;DHT22;7225;59.282;18.344;2022-12-18T11:50:05;3.00;99.90
14283;DHT22;7225;59.282;18.344;2022-12-18T11:52:40;3.00;99.90
14283;DHT22;7225;59.282;18.344;2022-12-18T11:55:30;3.00;99.90
14283;DHT22;7225;59.282;18.344;2022-12-18T12:01:40;3.00;99.90
14283;DHT22;7225;59.282;18.344;2022-12-18T12:12:37;3.00;99.90
14283;DHT22;7225;59.282;18.344;2022-12-18T12:18:28;3.00;99.90
14283;DHT22;7225;59.282;18.344;2022-12-18T12:26:33;3.10;99.90
14283;DHT22;7225;59.282;18.344;2022-12-18T12:37:53;3.20;99.90
14283;DHT22;7225;59.282;18.344;2022-12-18T12:40:27;3.20;99.90
14283;DHT22;7225;59.282;18.344;2022-12-18T12:43:26;3.20;99.90
14283;DHT22;7225;59.282;18.344;2022-12-18T12:46:05;3.20;99.90
14283;DHT22;7225;59.282;18.344;2022-12-18T12:51:20;3.20;99.90
14283;DHT22;7225;59.282;18.344;2022-12-18T12:53:49;3.20;99.90
14283;DHT22;7225;59.282;18.344;2022-12-18T12:56:19;3.20;99.90
14283;DHT22;7225;59.282;18.344;2022-12-18T13:01:54;3.20;99.90
14283;DHT22;7225;59.282;18.344;2022-12-18T13:04:34;3.30;99.90
14283;DHT22;7225;59.282;18.344;2022-12-18T13:07:12;3.20;99.90
14283;DHT22;7225;59.282;18.344;2022-12-18T13:10:12;3.30;99.90
14283;DHT22;7225;59.282;18.344;2022-12-18T13:15:44;3.30;99.90
14283;DHT22;7225;59.282;18.344;2022-12-18T13:18:17;3.30;99.90
14283;DHT22;7225;59.282;18.344;2022-12-18T13:23:40;3.40;99.90
14283;DHT22;7225;59.282;18.344;2022-12-18T13:34:17;3.40;99.90
14283;DHT22;7225;59.282;18.344;2022-12-18T13:36:56;3.40;99.90
14283;DHT22;7225;59.282;18.344;2022-12-18T13:39:33;3.40;99.90
14283;DHT22;7225;59.282;18.344;2022-12-18T13:44:40;3.40;99.90
14283;DHT22;7225;59.282;18.344;2022-12-18T13:47:28;3.40;99.90
14283;DHT22;7225;59.282;18.344;2022-12-18T13:49:58;3.50;99.90
14283;DHT22;7225;59.282;18.344;2022-12-18T13:52:37;3.50;99.90
14283;DHT22;7225;59.282;18.344;2022-12-18T13:55:14;3.50;99.90
14283;DHT22;7225;59.282;18.344;2022-12-18T13:57:41;3.50;99.90
14283;DHT22;7225;59.282;18.344;2022-12-18T14:00:29;3.50;99.90
14283;DHT22;7225;59.282;18.344;2022-12-18T14:02:57;3.60;99.90
14283;DHT22;7225;59.282;18.344;2022-12-18T14:05:37;3.60;99.90
14283;DHT22;7225;59.282;18.344;2022-12-18T14:08:14;3.60;99.90
14283;DHT22;7225;59.282;18.344;2022-12-18T14:10:45;3.60;99.90
14283;DHT22;7225;59.282;18.344;2022-12-18T14:13:40;3.60;99.90
14283;DHT22;7225;59.282;18.344;2022-12-18T14:16:14;3.60;99.90
14283;DHT22;7225;59.282;18.344;2022-12-18T14:18:55;3.60;99.90
14283;DHT22;7225;59.282;18.344;2022-12-18T14:21:34;3.60;99.90
14283;DHT22;7225;59.282;18.344;2022-12-18T14:24:21;3.60;99.90
14283;DHT22;7225;59.282;18.344;2022-12-18T14:26:50;3.60;99.90
14283;DHT22;7225;59.282;18.344;2022-12-18T14:29:24;3.60;99.90
14283;DHT22;7225;59.282;18.344;2022-12-18T14:32:17;3.60;99.90
14283;DHT22;7225;59.282;18.344;2022-12-18T14:34:47;3.60;99.90
14283;DHT22;7225;59.282;18.344;2022-12-18T14:37:20;3.70;99.90
14283;DHT22;7225;59.282;18.344;2022-12-18T14:40:04;3.70;99.90
14283;DHT22;7225;59.282;18.344;2022-12-18T14:42:38;3.70;99.90
14283;DHT22;7225;59.282;18.344;2022-12-18T14:45:38;3.70;99.90
14283;DHT22;7225;59.282;18.344;2022-12-18T14:50:53;3.70;99.90
14283;DHT22;7225;59.282;18.344;2022-12-18T14:53:58;3.70;99.90
14283;DHT22;7225;59.282;18.344;2022-12-18T14:56:33;3.80;99.90
14283;DHT22;7225;59.282;18.344;2022-12-18T14:59:06;3.80;99.90
14283;DHT22;7225;59.282;18.344;2022-12-18T15:04:35;3.80;99.90
14283;DHT22;7225;59.282;18.344;2022-12-18T15:07:14;3.80;99.90
14283;DHT22;7225;59.282;18.344;2022-12-18T15:10:24;3.80;99.90
14283;DHT22;7225;59.282;18.344;2022-12-18T15:18:12;3.80;99.90
14283;DHT22;7225;59.282;18.344;2022-12-18T15:26:06;3.80;99.90
14283;DHT22;7225;59.282;18.344;2022-12-18T15:28:51;3.80;99.90
14283;DHT22;7225;59.282;18.344;2022-12-18T15:31:24;3.80;99.90
14283;DHT22;7225;59.282;18.344;2022-12-18T15:36:23;3.80;99.90
14283;DHT22;7225;59.282;18.344;2022-12-18T15:38:55;3.80;99.90
14283;DHT22;7225;59.282;18.344;2022-12-18T15:41:35;3.80;99.90
14283;DHT22;7225;59.282;18.344;2022-12-18T15:44:16;3.80;99.90
14283;DHT22;7225;59.282;18.344;2022-12-18T15:46:48;3.80;99.90
14283;DHT22;7225;59.282;18.344;2022-12-18T15:49:16;3.80;99.90
14283;DHT22;7225;59.282;18.344;2022-12-18T15:51:43;3.80;99.90
14283;DHT22;7225;59.282;18.344;2022-12-18T15:54:14;3.80;99.90
14283;DHT22;7225;59.282;18.344;2022-12-18T15:57:02;3.80;99.90
14283;DHT22;7225;59.282;18.344;2022-12-18T15:59:47;3.80;99.90
14283;DHT22;7225;59.282;18.344;2022-12-18T16:02:17;3.80;99.90
14283;DHT22;7225;59.282;18.344;2022-12-18T16:04:47;3.80;99.90
14283;DHT22;7225;59.282;18.344;2022-12-18T16:07:14;3.80;99.90
14283;DHT22;7225;59.282;18.344;2022-12-18T16:09:45;3.80;99.90
14283;DHT22;7225;59.282;18.344;2022-12-18T16:12:22;3.90;99.90
14283;DHT22;7225;59.282;18.344;2022-12-18T16:14:51;3.90;99.90
14283;DHT22;7225;59.282;18.344;2022-12-18T16:17:19;3.80;99.90
14283;DHT22;7225;59.282;18.344;2022-12-18T16:19:48;3.90;99.90
14283;DHT22;7225;59.282;18.344;2022-12-18T16:22:24;3.80;99.90
14283;DHT22;7225;59.282;18.344;2022-12-18T16:24:55;3.90;99.90
14283;DHT22;7225;59.282;18.344;2022-12-18T16:27:24;3.90;99.90
14283;DHT22;7225;59.282;18.344;2022-12-18T16:29:52;3.80;99.90
14283;DHT22;7225;59.282;18.344;2022-12-18T16:32:21;3.80;99.90
14283;DHT22;7225;59.282;18.344;2022-12-18T16:34:50;3.80;99.90
14283;DHT22;7225;59.282;18.344;2022-12-18T16:37:18;3.80;99.90
14283;DHT22;7225;59.282;18.344;2022-12-18T16:39:46;3.80;99.90
14283;DHT22;7225;59.282;18.344;2022-12-18T16:42:18;3.80;99.90
14283;DHT22;7225;59.282;18.344;2022-12-18T16:44:48;3.80;99.90
14283;DHT22;7225;59.282;18.344;2022-12-18T16:47:17;3.80;99.90
14283;DHT22;7225;59.282;18.344;2022-12-18T16:49:45;3.80;99.90
14283;DHT22;7225;59.282;18.344;2022-12-18T16:52:13;3.80;99.90
14283;DHT22;7225;59.282;18.344;2022-12-18T16:54:41;3.80;99.90
14283;DHT22;7225;59.282;18.344;2022-12-18T16:57:12;3.80;99.90
14283;DHT22;7225;59.282;18.344;2022-12-18T16:59:40;3.80;99.90
14283;DHT22;7225;59.282;18.344;2022-12-18T17:02:17;3.90;99.90
14283;DHT22;7225;59.282;18.344;2022-12-18T17:04:55;3.80;99.90
14283;DHT22;7225;59.282;18.344;2022-12-18T17:07:25;3.80;99.90
14283;DHT22;7225;59.282;18.344;2022-12-18T17:09:53;3.80;99.90
14283;DHT22;7225;59.282;18.344;2022-12-18T17:12:22;3.80;99.90
14283;DHT22;7225;59.282;18.344;2022-12-18T17:14:50;3.80;99.90
14283;DHT22;7225;59.282;18.344;2022-12-18T17:17:19;3.70;99.90
14283;DHT22;7225;59.282;18.344;2022-12-18T17:19:51;3.80;99.90
14283;DHT22;7225;59.282;18.344;2022-12-18T17:22:20;3.70;99.90
14283;DHT22;7225;59.282;18.344;2022-12-18T17:24:48;3.70;99.90
14283;DHT22;7225;59.282;18.344;2022-12-18T17:27:17;3.70;99.90
14283;DHT22;7225;59.282;18.344;2022-12-18T17:29:44;3.70;99.90
14283;DHT22;7225;59.282;18.344;2022-12-18T17:32:16;3.70;99.90
14283;DHT22;7225;59.282;18.344;2022-12-18T17:34:44;3.70;99.90
14283;DHT22;7225;59.282;18.344;2022-12-18T17:37:12;3.70;99.90
14283;DHT22;7225;59.282;18.344;2022-12-18T17:39:40;3.70;99.90
14283;DHT22;7225;59.282;18.344;2022-12-18T17:42:10;3.70;99.90
14283;DHT22;7225;59.282;18.344;2022-12-18T17:44:44;3.70;99.90
14283;DHT22;7225;59.282;18.344;2022-12-18T17:47:12;3.70;99.90
14283;DHT22;7225;59.282;18.344;2022-12-18T17:49:40;3.70;99.90
14283;DHT22;7225;59.282;18.344;2022-12-18T17:52:09;3.70;99.90
14283;DHT22;7225;59.282;18.344;2022-12-18T17:54:37;3.60;99.90
14283;DHT22;7225;59.282;18.344;2022-12-18T17:57:08;3.60;99.90
14283;DHT22;7225;59.282;18.344;2022-12-18T17:59:36;3.60;99.90
14283;DHT22;7225;59.282;18.344;2022-12-18T18:02:04;3.60;99.90
14283;DHT22;7225;59.282;18.344;2022-12-18T18:04:32;3.60;99.90
14283;DHT22;7225;59.282;18.344;2022-12-18T18:07:01;3.60;99.90
14283;DHT22;7225;59.282;18.344;2022-12-18T18:09:28;3.60;99.90
14283;DHT22;7225;59.282;18.344;2022-12-18T18:11:56;3.60;99.90
14283;DHT22;7225;59.282;18.344;2022-12-18T18:14:55;3.60;99.90
14283;DHT22;7225;59.282;18.344;2022-12-18T18:17:23;3.60;99.90
14283;DHT22;7225;59.282;18.344;2022-12-18T18:19:51;3.60;99.90
14283;DHT22;7225;59.282;18.344;2022-12-18T18:22:19;3.60;99.90
14283;DHT22;7225;59.282;18.344;2022-12-18T18:24:49;3.60;99.90
14283;DHT22;7225;59.282;18.344;2022-12-18T18:27:17;3.50;99.90
14283;DHT22;7225;59.282;18.344;2022-12-18T18:29:45;3.50;99.90
14283;DHT22;7225;59.282;18.344;2022-12-18T18:32:12;3.60;99.90
14283;DHT22;7225;59.282;18.344;2022-12-18T18:34:42;3.60;99.90
14283;DHT22;7225;59.282;18.344;2022-12-18T18:37:10;3.50;99.90
14283;DHT22;7225;59.282;18.344;2022-12-18T18:39:40;3.50;99.90
14283;DHT22;7225;59.282;18.344;2022-12-18T18:42:08;3.50;99.90
14283;DHT22;7225;59.282;18.344;2022-12-18T18:44:36;3.50;99.90